createdAt,value
2023-05-18T00:02:17.770Z,0
2023-05-18T00:04:43.858Z,0
2023-05-18T00:07:09.972Z,0
2023-05-18T00:09:36.054Z,0
2023-05-18T00:12:02.151Z,0
2023-05-18T00:14:28.266Z,0
2023-05-18T00:16:54.337Z,0
2023-05-18T00:19:20.426Z,0
2023-05-18T00:21:45.538Z,0
2023-05-18T00:24:11.648Z,0
2023-05-18T00:26:37.811Z,0
2023-05-18T00:29:03.893Z,0
2023-05-18T00:31:29.966Z,0
2023-05-18T00:33:56.070Z,0
2023-05-18T00:36:22.176Z,0
2023-05-18T00:38:48.422Z,0
2023-05-18T00:41:13.701Z,0
2023-05-18T00:43:39.611Z,0
2023-05-18T00:46:05.719Z,0
2023-05-18T00:48:31.807Z,0
2023-05-18T00:50:57.904Z,0
2023-05-18T00:53:23.986Z,0
2023-05-18T00:55:50.112Z,0
2023-05-18T00:58:16.191Z,0
2023-05-18T01:00:41.275Z,0
2023-05-18T01:03:07.375Z,0
2023-05-18T01:05:33.450Z,0
2023-05-18T01:07:59.543Z,0
2023-05-18T01:10:25.649Z,0
2023-05-18T01:12:51.731Z,0
2023-05-18T01:15:17.830Z,0
2023-05-18T01:17:43.940Z,0
2023-05-18T01:20:10.040Z,0
2023-05-18T01:22:36.111Z,0
2023-05-18T01:25:02.226Z,0
2023-05-18T01:27:28.316Z,0
2023-05-18T01:29:53.429Z,0
2023-05-18T01:32:18.543Z,0
2023-05-18T01:34:44.639Z,0
2023-05-18T01:37:10.849Z,0
2023-05-18T01:39:36.823Z,0
2023-05-18T01:42:02.918Z,0
2023-05-18T01:44:29.080Z,0
2023-05-18T01:46:55.123Z,0
2023-05-18T01:49:21.225Z,0
2023-05-18T01:51:47.307Z,0
2023-05-18T01:54:13.395Z,0
2023-05-18T01:56:39.503Z,0
2023-05-18T01:59:05.609Z,0
2023-05-18T02:01:31.704Z,0
2023-05-18T02:03:56.802Z,0
2023-05-18T02:06:22.898Z,0
2023-05-18T02:08:48.997Z,0
2023-05-18T02:11:15.093Z,0
2023-05-18T02:13:41.185Z,0
2023-05-18T02:16:07.291Z,0
2023-05-18T02:18:32.394Z,0
2023-05-18T02:20:57.511Z,0
2023-05-18T02:23:23.606Z,0
2023-05-18T02:25:49.698Z,0
2023-05-18T02:28:15.794Z,0
2023-05-18T02:30:41.907Z,0
2023-05-18T02:33:07.981Z,0
2023-05-18T02:35:34.087Z,0
2023-05-18T02:38:00.177Z,0
2023-05-18T02:40:26.266Z,0
2023-05-18T02:42:52.355Z,0
2023-05-18T02:45:18.459Z,0
2023-05-18T02:47:44.570Z,0
2023-05-18T02:50:10.662Z,0
2023-05-18T02:52:35.777Z,0
2023-05-18T02:55:01.859Z,0
2023-05-18T02:57:27.953Z,0
2023-05-18T02:59:54.054Z,0
2023-05-18T03:02:20.143Z,0
2023-05-18T03:04:46.257Z,4
2023-05-18T03:07:11.359Z,4
2023-05-18T03:09:36.488Z,4
2023-05-18T03:12:02.580Z,8
2023-05-18T03:14:28.686Z,12
2023-05-18T03:16:54.768Z,16
2023-05-18T03:19:20.896Z,20
2023-05-18T03:21:46.951Z,28
2023-05-18T03:24:13.061Z,36
2023-05-18T03:26:39.155Z,52
2023-05-18T03:29:05.253Z,68
2023-05-18T03:31:31.346Z,92
2023-05-18T03:33:57.447Z,116
2023-05-18T03:36:23.551Z,148
2023-05-18T03:38:49.634Z,180
2023-05-18T03:41:14.760Z,224
2023-05-18T03:43:40.849Z,269
2023-05-18T03:46:06.946Z,321
2023-05-18T03:48:33.037Z,377
2023-05-18T03:50:59.126Z,437
2023-05-18T03:53:25.233Z,505
2023-05-18T03:55:51.317Z,574
2023-05-18T03:58:17.413Z,646
2023-05-18T04:00:43.511Z,722
2023-05-18T04:03:09.607Z,803
2023-05-18T04:05:35.709Z,887
2023-05-18T04:08:01.792Z,971
2023-05-18T04:10:27.935Z,1052
2023-05-18T04:12:53.019Z,1136
2023-05-18T04:15:19.109Z,1212
2023-05-18T04:17:45.220Z,1289
2023-05-18T04:20:11.306Z,1361
2023-05-18T04:22:37.399Z,1437
2023-05-18T04:25:03.483Z,1521
2023-05-18T04:27:29.579Z,1602
2023-05-18T04:29:55.679Z,1678
2023-05-18T04:32:21.784Z,1750
2023-05-18T04:34:47.876Z,1819
2023-05-18T04:37:13.972Z,1891
2023-05-18T04:39:40.068Z,1959
2023-05-18T04:42:06.165Z,2027
2023-05-18T04:44:31.263Z,2092
2023-05-18T04:46:57.382Z,2156
2023-05-18T04:49:23.477Z,2212
2023-05-18T04:51:49.561Z,2268
2023-05-18T04:54:15.653Z,2321
2023-05-18T04:56:41.755Z,2381
2023-05-18T04:59:07.843Z,2437
2023-05-18T05:01:33.958Z,2485
2023-05-18T05:04:00.045Z,2529
2023-05-18T05:06:26.136Z,2598
2023-05-18T05:08:52.232Z,2650
2023-05-18T05:11:18.315Z,2702
2023-05-18T05:13:44.401Z,2766
2023-05-18T05:16:09.537Z,2823
2023-05-18T05:18:35.615Z,2895
2023-05-18T05:21:01.716Z,2979
2023-05-18T05:23:27.815Z,3059
2023-05-18T05:25:53.902Z,3136
2023-05-18T05:28:20.019Z,3204
2023-05-18T05:30:46.102Z,3256
2023-05-18T05:33:12.196Z,3308
2023-05-18T05:35:38.302Z,3349
2023-05-18T05:38:04.376Z,3377
2023-05-18T05:40:30.480Z,3401
2023-05-18T05:42:56.572Z,3437
2023-05-18T05:45:22.676Z,3481
2023-05-18T05:47:47.777Z,3517
2023-05-18T05:50:13.885Z,3565
2023-05-18T05:52:40.029Z,3618
2023-05-18T05:55:06.148Z,3674
2023-05-18T05:57:32.165Z,3758
2023-05-18T05:59:58.272Z,3818
2023-05-18T06:02:24.363Z,3903
2023-05-18T06:04:50.457Z,3790
2023-05-18T06:07:16.542Z,3762
2023-05-18T06:09:42.651Z,3810
2023-05-18T06:12:08.739Z,3995
2023-05-18T06:14:34.838Z,4240
2023-05-18T06:17:00.931Z,4377
2023-05-18T06:19:27.023Z,4288
2023-05-18T06:21:53.120Z,4417
2023-05-18T06:24:19.215Z,4429
2023-05-18T06:26:45.342Z,4429
2023-05-18T06:29:11.462Z,4389
2023-05-18T06:31:37.545Z,4529
2023-05-18T06:34:03.634Z,4553
2023-05-18T06:36:29.765Z,4533
2023-05-18T06:38:55.829Z,4529
2023-05-18T06:41:21.904Z,4525
2023-05-18T06:43:47.045Z,4505
2023-05-18T06:46:13.120Z,4421
2023-05-18T06:48:39.244Z,4425
2023-05-18T06:51:05.372Z,4541
2023-05-18T06:53:31.437Z,4561
2023-05-18T06:55:57.519Z,4553
2023-05-18T06:58:23.588Z,4557
2023-05-18T07:00:49.708Z,4585
2023-05-18T07:03:15.793Z,4585
2023-05-18T07:05:41.873Z,4573
2023-05-18T07:08:07.967Z,4614
2023-05-18T07:10:34.072Z,4581
2023-05-18T07:13:00.152Z,4597
2023-05-18T07:15:25.286Z,4565
2023-05-18T07:17:51.363Z,4577
2023-05-18T07:20:17.469Z,4593
2023-05-18T07:22:43.533Z,4581
2023-05-18T07:25:09.636Z,4573
2023-05-18T07:27:35.739Z,4581
2023-05-18T07:30:01.859Z,4589
2023-05-18T07:32:27.931Z,4593
2023-05-18T07:34:54.017Z,4601
2023-05-18T07:37:20.119Z,4634
2023-05-18T07:39:46.207Z,4658
2023-05-18T07:42:12.335Z,4654
2023-05-18T07:44:38.405Z,4690
2023-05-18T07:47:03.516Z,4682
2023-05-18T07:49:29.609Z,4694
2023-05-18T07:51:55.705Z,4694
2023-05-18T07:54:21.794Z,4698
2023-05-18T07:56:47.906Z,4726
2023-05-18T07:59:13.989Z,4774
2023-05-18T08:01:40.105Z,4782
2023-05-18T08:04:06.195Z,4810
2023-05-18T08:06:32.304Z,4854
2023-05-18T08:08:58.395Z,4858
2023-05-18T08:13:50.574Z,4899
2023-05-18T08:16:16.711Z,4923
2023-05-18T08:18:41.904Z,4923
2023-05-18T08:21:07.885Z,4939
2023-05-18T08:23:33.980Z,4975
2023-05-18T08:26:00.081Z,4983
2023-05-18T08:28:26.150Z,5015
2023-05-18T08:30:52.245Z,5087
2023-05-18T08:33:18.333Z,5919
2023-05-18T08:35:44.427Z,5344
2023-05-18T08:38:10.531Z,5047
2023-05-18T08:40:36.620Z,5059
2023-05-18T08:43:02.737Z,5529
2023-05-18T08:45:28.802Z,4983
2023-05-18T08:47:54.909Z,6067
2023-05-18T08:50:20.016Z,7079
2023-05-18T08:52:46.129Z,7617
2023-05-18T08:55:12.211Z,6818
2023-05-18T08:57:38.305Z,8115
2023-05-18T09:00:04.409Z,9473
2023-05-18T09:02:30.569Z,7332
2023-05-18T09:04:56.590Z,6469
2023-05-18T09:07:22.680Z,7947
2023-05-18T09:09:47.813Z,10902
2023-05-18T09:12:13.886Z,10171
2023-05-18T09:14:39.989Z,8991
2023-05-18T09:17:06.080Z,7734
2023-05-18T09:19:32.164Z,9946
2023-05-18T09:21:58.259Z,9432
2023-05-18T09:24:24.397Z,8216
2023-05-18T09:26:50.482Z,6521
2023-05-18T09:29:16.559Z,6617
2023-05-18T09:31:42.656Z,6830
2023-05-18T09:34:08.749Z,7039
2023-05-18T09:36:34.847Z,7260
2023-05-18T09:39:00.942Z,7256
2023-05-18T09:41:26.061Z,6939
2023-05-18T09:43:52.152Z,6553
2023-05-18T09:46:18.239Z,6569
2023-05-18T09:48:44.349Z,7284
2023-05-18T09:51:10.442Z,7356
2023-05-18T09:53:36.542Z,6565
2023-05-18T09:56:02.616Z,6336
2023-05-18T09:58:28.749Z,6240
2023-05-18T10:00:54.815Z,7059
2023-05-18T10:03:20.919Z,7296
2023-05-18T10:05:47.023Z,8224
2023-05-18T10:08:13.100Z,7914
2023-05-18T10:10:39.200Z,8641
2023-05-18T10:13:04.340Z,8196
2023-05-18T10:15:30.448Z,7236
2023-05-18T10:17:56.505Z,7276
2023-05-18T10:20:22.596Z,7163
2023-05-18T10:22:48.692Z,7686
2023-05-18T10:25:14.784Z,7236
2023-05-18T10:27:40.904Z,7039
2023-05-18T10:30:06.981Z,7131
2023-05-18T10:32:33.096Z,7212
2023-05-18T10:34:59.174Z,7236
2023-05-18T10:37:25.259Z,7159
2023-05-18T10:39:51.344Z,6991
2023-05-18T10:42:17.466Z,7095
2023-05-18T10:44:42.652Z,7127
2023-05-18T10:47:08.659Z,7135
2023-05-18T10:49:34.745Z,7192
2023-05-18T10:52:00.852Z,7115
2023-05-18T10:54:26.929Z,7135
2023-05-18T10:56:53.040Z,7276
2023-05-18T10:59:19.132Z,7380
2023-05-18T11:01:45.239Z,7356
2023-05-18T11:04:11.335Z,7416
2023-05-18T11:06:37.404Z,7549
2023-05-18T11:09:03.506Z,9444
2023-05-18T11:11:29.622Z,9344
2023-05-18T11:13:55.786Z,9051
2023-05-18T11:16:21.789Z,8300
2023-05-18T11:18:46.892Z,8288
2023-05-18T11:21:12.985Z,8505
2023-05-18T11:23:39.092Z,8473
2023-05-18T11:26:05.180Z,8673
2023-05-18T11:28:31.271Z,9171
2023-05-18T11:30:57.395Z,8718
2023-05-18T11:33:23.456Z,8926
2023-05-18T11:35:49.635Z,9111
2023-05-18T11:38:15.655Z,9746
2023-05-18T11:40:41.752Z,11344
2023-05-18T11:43:07.833Z,9902
2023-05-18T11:45:33.947Z,10420
2023-05-18T11:48:00.040Z,39835
2023-05-18T11:50:25.130Z,46292
2023-05-18T11:52:51.235Z,24961
2023-05-18T11:55:17.331Z,105757
2023-05-18T11:57:43.516Z,68620
2023-05-18T12:00:09.557Z,17950
2023-05-18T12:02:35.624Z,101934
2023-05-18T12:05:01.716Z,17536
2023-05-18T12:07:27.786Z,114591
2023-05-18T12:09:53.898Z,103636
2023-05-18T12:12:20.035Z,111218
2023-05-18T12:14:46.088Z,115073
2023-05-18T12:17:12.188Z,102480
2023-05-18T12:19:38.277Z,44493
2023-05-18T12:22:03.390Z,106977
2023-05-18T12:24:29.564Z,100424
2023-05-18T12:26:55.648Z,28559
2023-05-18T12:29:21.659Z,111507
2023-05-18T12:31:47.886Z,103283
2023-05-18T12:34:13.877Z,105050
2023-05-18T12:36:39.971Z,102126
2023-05-18T12:39:06.058Z,91686
2023-05-18T12:41:32.139Z,15572
2023-05-18T12:43:58.248Z,100263
2023-05-18T12:46:24.344Z,18954
2023-05-18T12:48:50.415Z,98400
2023-05-18T12:51:16.568Z,21106
2023-05-18T12:53:41.639Z,82980
2023-05-18T12:56:07.769Z,93967
2023-05-18T12:58:33.856Z,19853
2023-05-18T13:01:00.044Z,101291
2023-05-18T13:03:26.027Z,99524
2023-05-18T13:05:52.107Z,95830
2023-05-18T13:08:18.211Z,94641
2023-05-18T13:10:44.342Z,14259
2023-05-18T13:13:10.582Z,13854
2023-05-18T13:15:36.720Z,99460
2023-05-18T13:18:02.786Z,108648
2023-05-18T13:20:28.709Z,100231
2023-05-18T13:22:54.882Z,103829
2023-05-18T13:25:19.914Z,99749
2023-05-18T13:27:46.018Z,28174
2023-05-18T13:30:12.083Z,94384
2023-05-18T13:32:38.231Z,82787
2023-05-18T13:35:04.325Z,16669
2023-05-18T13:37:30.370Z,76715
2023-05-18T13:39:56.464Z,85485
2023-05-18T13:42:22.562Z,37972
2023-05-18T13:44:48.691Z,17926
2023-05-18T13:47:14.779Z,77968
2023-05-18T13:49:40.845Z,86192
2023-05-18T13:52:07.083Z,62901
2023-05-18T13:54:33.043Z,89822
2023-05-18T13:56:58.137Z,93292
2023-05-18T13:59:24.258Z,93035
2023-05-18T14:01:50.353Z,25893
2023-05-18T14:04:16.440Z,16833
2023-05-18T14:09:08.637Z,70129
2023-05-18T14:11:34.735Z,87927
2023-05-18T14:14:00.826Z,86256
2023-05-18T14:16:26.949Z,80795
2023-05-18T14:18:53.004Z,75591
2023-05-18T14:21:19.249Z,76490
2023-05-18T14:23:45.230Z,76940
2023-05-18T14:26:11.430Z,77229
2023-05-18T14:28:36.507Z,89244
2023-05-18T14:31:02.535Z,26824
2023-05-18T14:33:28.599Z,93645
2023-05-18T14:35:54.821Z,59592
2023-05-18T14:38:20.870Z,17958
2023-05-18T14:40:46.888Z,12271
2023-05-18T14:43:13.021Z,12673
2023-05-18T14:45:39.111Z,14078
2023-05-18T14:48:05.317Z,14066
2023-05-18T14:50:31.282Z,14083
2023-05-18T14:52:57.449Z,14127
2023-05-18T14:55:23.445Z,13536
2023-05-18T14:57:49.538Z,12536
2023-05-18T15:00:14.640Z,11605
2023-05-18T15:02:40.742Z,11416
2023-05-18T15:05:06.832Z,12368
2023-05-18T15:07:32.934Z,13251
2023-05-18T15:09:59.044Z,12159
2023-05-18T15:12:25.139Z,10677
2023-05-18T15:14:51.269Z,9834
2023-05-18T15:17:17.347Z,9468
2023-05-18T15:19:43.406Z,9400
2023-05-18T15:22:09.543Z,9549
2023-05-18T15:24:35.597Z,9228
2023-05-18T15:27:01.782Z,8918
2023-05-18T15:29:27.826Z,8798
2023-05-18T15:31:52.932Z,8469
2023-05-18T15:34:18.982Z,8697
2023-05-18T15:36:45.106Z,8914
2023-05-18T15:39:11.182Z,7706
2023-05-18T15:41:37.328Z,6409
2023-05-18T15:44:03.365Z,5742
2023-05-18T15:46:29.452Z,5368
2023-05-18T15:48:55.553Z,5441
2023-05-18T15:51:21.647Z,5943
2023-05-18T15:53:47.736Z,6621
2023-05-18T15:56:13.857Z,7718
2023-05-18T15:58:39.944Z,8617
2023-05-18T16:01:06.042Z,9477
2023-05-18T16:03:31.140Z,10709
2023-05-18T16:05:57.252Z,10705
2023-05-18T16:08:23.348Z,9966
2023-05-18T16:10:49.465Z,10974
2023-05-18T16:13:15.514Z,12532
2023-05-18T16:18:07.736Z,30679
2023-05-18T16:20:33.806Z,14127
2023-05-18T16:22:59.905Z,12247
2023-05-18T16:25:26.010Z,24897
2023-05-18T16:27:52.175Z,19725
2023-05-18T16:30:18.176Z,8657
2023-05-18T16:32:44.279Z,4457
2023-05-18T16:35:09.396Z,4091
2023-05-18T16:37:35.495Z,4152
2023-05-18T16:40:01.588Z,4682
2023-05-18T16:42:27.697Z,5196
2023-05-18T16:44:53.764Z,5782
2023-05-18T16:47:19.854Z,6288
2023-05-18T16:49:45.971Z,6738
2023-05-18T16:52:12.059Z,6352
2023-05-18T16:54:38.141Z,5762
2023-05-18T16:57:04.257Z,5947
2023-05-18T16:59:30.353Z,6670
2023-05-18T17:01:56.498Z,6750
2023-05-18T17:04:22.536Z,6075
2023-05-18T17:06:47.643Z,5240
2023-05-18T17:09:13.746Z,4806
2023-05-18T17:11:39.814Z,4810
2023-05-18T17:14:05.925Z,5766
2023-05-18T17:16:32.057Z,5260
2023-05-18T17:18:57.152Z,4196
2023-05-18T17:21:23.238Z,3397
2023-05-18T17:23:49.309Z,2943
2023-05-18T17:26:15.420Z,2903
2023-05-18T17:28:41.509Z,2971
2023-05-18T17:31:07.633Z,3063
2023-05-18T17:33:33.743Z,2983
2023-05-18T17:35:59.829Z,2827
2023-05-18T17:38:25.899Z,2786
2023-05-18T17:40:52.004Z,2939
2023-05-18T17:43:18.130Z,2814
2023-05-18T17:45:44.169Z,2867
2023-05-18T17:48:10.274Z,3300
2023-05-18T17:50:35.392Z,3565
2023-05-18T17:53:01.538Z,3320
2023-05-18T17:55:27.574Z,2553
2023-05-18T17:57:53.698Z,2220
2023-05-18T18:00:19.877Z,1895
2023-05-18T18:02:45.858Z,1718
2023-05-18T18:05:12.043Z,1429
2023-05-18T18:07:38.036Z,1228
2023-05-18T18:10:04.148Z,1024
2023-05-18T18:12:30.257Z,959
2023-05-18T18:14:56.327Z,851
2023-05-18T18:17:22.441Z,722
2023-05-18T18:19:48.522Z,710
2023-05-18T18:22:13.656Z,734
2023-05-18T18:25:06.692Z,726
2023-05-18T18:27:05.837Z,734
2023-05-18T18:29:31.962Z,766
2023-05-18T18:31:58.068Z,787
2023-05-18T18:34:24.124Z,766
2023-05-18T18:36:50.247Z,734
2023-05-18T18:39:16.311Z,750
2023-05-18T18:41:42.472Z,766
2023-05-18T18:44:08.534Z,730
2023-05-18T18:46:34.582Z,606
2023-05-18T18:49:00.768Z,449
2023-05-18T18:51:26.791Z,341
2023-05-18T18:53:51.888Z,269
2023-05-18T18:56:17.983Z,216
2023-05-18T18:58:44.068Z,176
2023-05-18T19:01:10.170Z,144
2023-05-18T19:03:36.269Z,120
2023-05-18T19:06:02.361Z,92
2023-05-18T19:08:28.464Z,68
2023-05-18T19:10:54.548Z,52
2023-05-18T19:13:20.725Z,36
2023-05-18T19:15:46.745Z,32
2023-05-18T19:18:12.833Z,24
2023-05-18T19:20:38.937Z,16
2023-05-18T19:23:05.027Z,12
2023-05-18T19:25:30.127Z,8
2023-05-18T19:27:56.245Z,8
2023-05-18T19:30:22.350Z,4
2023-05-18T19:32:48.419Z,0
2023-05-18T19:35:14.502Z,4
2023-05-18T19:37:40.608Z,0
2023-05-18T19:40:06.715Z,0
2023-05-18T19:42:32.809Z,0
2023-05-18T19:44:58.873Z,0
2023-05-18T19:47:25.032Z,0
2023-05-18T19:49:51.064Z,0
2023-05-18T19:52:17.182Z,0
2023-05-18T19:54:43.258Z,0
2023-05-18T19:57:08.405Z,0
2023-05-18T19:59:34.475Z,0
2023-05-18T20:02:00.557Z,0
2023-05-18T20:04:26.648Z,0
2023-05-18T20:06:52.764Z,0
2023-05-18T20:09:18.844Z,0
2023-05-18T20:11:44.935Z,0
2023-05-18T20:14:11.047Z,0
2023-05-18T20:16:37.130Z,0
2023-05-18T20:19:03.252Z,0
2023-05-18T20:21:29.319Z,0
2023-05-18T20:23:55.410Z,0
2023-05-18T20:26:21.504Z,0
2023-05-18T20:28:46.631Z,0
2023-05-18T20:31:12.795Z,0
2023-05-18T20:33:38.874Z,0
2023-05-18T20:36:04.899Z,0
2023-05-18T20:38:31.017Z,0
2023-05-18T20:40:57.105Z,0
2023-05-18T20:43:23.194Z,0
2023-05-18T20:45:49.285Z,0
2023-05-18T20:48:15.378Z,0
2023-05-18T20:50:41.510Z,0
2023-05-18T20:53:07.581Z,0
2023-05-18T20:55:33.666Z,0
2023-05-18T20:57:59.802Z,0
2023-05-18T21:00:24.906Z,0
2023-05-18T21:02:51.037Z,0
2023-05-18T21:05:17.061Z,0
2023-05-18T21:07:43.174Z,0
2023-05-18T21:10:09.288Z,0
2023-05-18T21:12:35.364Z,0
2023-05-18T21:15:01.468Z,0
2023-05-18T21:17:27.551Z,0
2023-05-18T21:19:53.649Z,0
2023-05-18T21:22:19.731Z,0
2023-05-18T21:24:45.820Z,0
2023-05-18T21:27:11.981Z,0
2023-05-18T21:29:38.014Z,0
2023-05-18T21:32:04.121Z,0
2023-05-18T21:34:30.216Z,0
2023-05-18T21:36:56.306Z,0
2023-05-18T21:39:22.411Z,0
2023-05-18T21:41:48.498Z,0
2023-05-18T21:44:14.590Z,0
2023-05-18T21:46:39.710Z,0
2023-05-18T21:49:05.807Z,0
2023-05-18T21:51:31.879Z,0
2023-05-18T21:53:57.993Z,0
2023-05-18T21:56:24.090Z,0
2023-05-18T21:58:50.158Z,0
2023-05-18T22:01:16.277Z,0
2023-05-18T22:03:42.370Z,0
2023-05-18T22:06:08.491Z,0
2023-05-18T22:08:34.564Z,0
2023-05-18T22:11:00.661Z,0
2023-05-18T22:13:26.745Z,0
2023-05-18T22:15:52.832Z,0
2023-05-18T22:18:17.949Z,0
2023-05-18T22:20:44.035Z,0
2023-05-18T22:23:10.158Z,0
2023-05-18T22:25:36.254Z,0
2023-05-18T22:28:02.326Z,0
2023-05-18T22:30:28.432Z,0
2023-05-18T22:32:54.522Z,0
2023-05-18T22:35:20.605Z,0
2023-05-18T22:37:46.708Z,0
2023-05-18T22:40:12.860Z,0
2023-05-18T22:42:38.910Z,0
2023-05-18T22:45:04.993Z,0
2023-05-18T22:47:31.101Z,0
2023-05-18T22:49:56.194Z,0
2023-05-18T22:52:22.293Z,0
2023-05-18T22:54:48.371Z,0
2023-05-18T22:57:14.482Z,0
2023-05-18T22:59:40.566Z,0
2023-05-18T23:02:06.657Z,0
2023-05-18T23:04:32.760Z,0
2023-05-18T23:06:58.845Z,0
2023-05-18T23:09:24.961Z,0
2023-05-18T23:11:51.053Z,0
2023-05-18T23:14:17.154Z,0
2023-05-18T23:16:43.247Z,0
2023-05-18T23:19:09.324Z,0
2023-05-18T23:21:34.430Z,0
2023-05-18T23:24:00.561Z,0
2023-05-18T23:26:26.640Z,0
2023-05-18T23:28:52.773Z,0
2023-05-18T23:31:18.825Z,0
2023-05-18T23:33:44.916Z,0
2023-05-18T23:36:11.033Z,0
2023-05-18T23:38:37.119Z,0
2023-05-18T23:41:03.207Z,0
2023-05-18T23:43:29.301Z,0
2023-05-18T23:45:55.405Z,0
2023-05-18T23:48:21.486Z,0
2023-05-18T23:50:47.588Z,0
2023-05-18T23:53:12.696Z,0
2023-05-18T23:55:38.805Z,0
2023-05-18T23:58:04.905Z,0
